KFAF/FAF METAR and TAF weather

Enter ICAO airport designator
Station Type Date Time Source
KFAF METAR 2021/10/24 21:56 UTC NOAA

KFAF 242156Z AUTO 16003KT 10SM CLR 22/09 A3009 RMK AO2 SLP193 T02160091 $


Station Type Date Time Source
KFAF Decoded METAR 2021/10/24 21:56 UTC NOAA

Fort Eustis / Felker, VA, United States (KFAF) 37-08N 076-37W
Oct 24, 2021 - 05:56 PM EDT / 2021.10.24 2156 UTC
Wind: from the SSE (160 degrees) at 3 MPH (3 KT):0
Visibility: 10 mile(s):0
Sky conditions: clear
Temperature: 70.9 F (21.6 C)
Dew Point: 48.4 F (9.1 C)
Relative Humidity: 44%
Pressure (altimeter): 30.09 in. Hg (1018 hPa)
ob: KFAF 242156Z AUTO 16003KT 10SM CLR 22/09 A3009 RMK AO2 SLP193 T02160091
cycle: 22

Station Type Date Time Source
KFAF TAF 2021/10/23 02:03 UTC NOAA

TAF KFAF 230200Z 2302/2408 04006KT 9000 BR BKN040 QNH2994INS
BECMG 2311/2312 28012KT 9999 NSW BKN035 QNH2992INS
BECMG 2319/2320 26009KT 9999 FEW045 QNH2992INS TX20/2317Z TN13/2311Z LAST NO
AMDS AFT 2303 NEXT 2510

Example: see airport list